createdAt,value
2018-03-25T00:00:21.555Z,83.10
2018-03-25T00:03:24.878Z,86.83
2018-03-25T00:06:28.178Z,80.00
2018-03-25T00:09:31.510Z,88.70
2018-03-25T00:12:34.833Z,88.70
2018-03-25T00:15:38.164Z,86.47
2018-03-25T00:18:41.495Z,86.17
2018-03-25T00:21:44.819Z,87.97
2018-03-25T00:24:48.135Z,85.40
2018-03-25T00:27:51.459Z,88.47
2018-03-25T00:30:55.552Z,88.10
2018-03-25T00:33:58.855Z,88.03
2018-03-25T00:37:02.200Z,85.67
2018-03-25T00:40:05.509Z,89.70
2018-03-25T00:43:08.827Z,86.33
2018-03-25T00:46:12.171Z,89.27
2018-03-25T00:49:16.238Z,89.37
2018-03-25T00:52:19.558Z,89.30
2018-03-25T00:55:22.863Z,85.43
2018-03-25T00:58:26.950Z,81.93
2018-03-25T01:01:30.250Z,93.37
2018-03-25T01:04:33.568Z,85.53
2018-03-25T01:07:36.890Z,90.13
2018-03-25T01:10:40.971Z,80.27
2018-03-25T01:13:44.281Z,88.20
2018-03-25T01:16:48.376Z,97.40
2018-03-25T01:19:51.699Z,96.17
2018-03-25T01:22:55.798Z,89.30
2018-03-25T01:25:59.115Z,92.47
2018-03-25T01:29:02.451Z,99.57
2018-03-25T01:32:05.767Z,100.20
2018-03-25T01:35:09.107Z,106.50
2018-03-25T01:38:13.187Z,102.60
2018-03-25T01:41:16.521Z,104.93
2018-03-25T01:44:19.847Z,99.30
2018-03-25T01:47:23.155Z,99.37
2018-03-25T01:50:26.470Z,95.07
2018-03-25T01:53:29.770Z,95.43
2018-03-25T01:56:33.098Z,103.97
2018-03-25T01:59:36.426Z,95.20
2018-03-25T02:02:39.731Z,100.40
2018-03-25T02:05:43.047Z,96.00
2018-03-25T02:08:46.378Z,104.87
2018-03-25T02:11:50.447Z,97.90
2018-03-25T02:14:53.781Z,93.67
2018-03-25T02:17:57.855Z,91.53
2018-03-25T02:21:01.174Z,89.93
2018-03-25T02:24:04.494Z,91.07
2018-03-25T02:27:08.586Z,95.87
2018-03-25T02:30:11.896Z,80.73
2018-03-25T02:33:15.991Z,89.33
2018-03-25T02:36:19.316Z,88.43
2018-03-25T02:39:23.418Z,85.83
2018-03-25T02:42:26.736Z,86.50
2018-03-25T02:45:30.816Z,83.47
2018-03-25T02:48:34.152Z,82.40
2018-03-25T02:51:38.225Z,86.10
2018-03-25T02:54:41.546Z,83.03
2018-03-25T02:57:45.639Z,86.53
2018-03-25T03:00:48.947Z,86.07
2018-03-25T03:03:52.268Z,85.67
2018-03-25T03:06:55.590Z,79.27
2018-03-25T03:09:58.894Z,87.90
2018-03-25T03:13:02.236Z,87.40
2018-03-25T03:16:05.543Z,89.63
2018-03-25T03:19:09.638Z,83.80
2018-03-25T03:22:12.944Z,86.27
2018-03-25T03:25:16.273Z,83.83
2018-03-25T03:28:19.574Z,72.07
2018-03-25T03:31:22.902Z,75.13
2018-03-25T03:34:26.222Z,70.23
2018-03-25T03:37:29.524Z,74.47
2018-03-25T03:40:32.859Z,74.37
2018-03-25T03:43:36.172Z,75.13
2018-03-25T03:46:39.511Z,72.00
2018-03-25T03:49:42.818Z,74.47
2018-03-25T03:52:46.902Z,67.37
2018-03-25T03:55:50.232Z,74.30
2018-03-25T03:58:54.323Z,84.43
2018-03-25T04:01:57.626Z,74.83
2018-03-25T04:05:00.951Z,78.10
2018-03-25T04:08:05.026Z,78.03
2018-03-25T04:11:08.348Z,80.50
2018-03-25T04:14:12.411Z,73.73
2018-03-25T04:17:15.737Z,79.00
2018-03-25T04:20:19.050Z,69.03
2018-03-25T04:23:22.374Z,77.80
2018-03-25T04:26:25.690Z,78.20
2018-03-25T04:29:28.993Z,70.37
2018-03-25T04:32:32.314Z,73.40
2018-03-25T04:35:35.654Z,80.03
2018-03-25T04:38:39.726Z,77.97
2018-03-25T04:41:43.043Z,71.83
2018-03-25T04:44:46.343Z,70.03
2018-03-25T04:47:49.667Z,70.73
2018-03-25T04:50:52.982Z,67.53
2018-03-25T04:53:56.310Z,73.03
2018-03-25T04:56:59.638Z,74.37
2018-03-25T05:00:03.702Z,74.33
2018-03-25T05:03:07.655Z,71.47
2018-03-25T05:06:10.971Z,69.63
2018-03-25T05:09:15.078Z,65.60
2018-03-25T05:12:18.387Z,73.27
2018-03-25T05:15:21.713Z,67.90
2018-03-25T05:18:25.011Z,70.00
2018-03-25T05:21:28.334Z,61.03
2018-03-25T05:24:31.663Z,68.93
2018-03-25T05:27:34.967Z,72.20
2018-03-25T05:30:38.300Z,64.30
2018-03-25T05:33:41.610Z,65.10
2018-03-25T05:36:44.973Z,61.60
2018-03-25T05:39:48.279Z,67.13
2018-03-25T05:42:51.594Z,63.17
2018-03-25T05:45:54.894Z,62.70
2018-03-25T05:48:58.238Z,68.83
2018-03-25T05:52:02.314Z,60.27
2018-03-25T05:55:05.634Z,68.27
2018-03-25T05:58:09.703Z,71.43
2018-03-25T06:01:13.024Z,55.53
2018-03-25T06:04:16.330Z,68.10
2018-03-25T06:07:19.646Z,64.80
2018-03-25T06:10:23.734Z,68.07
2018-03-25T06:13:27.063Z,63.63
2018-03-25T06:16:31.130Z,64.67
2018-03-25T06:19:34.447Z,68.37
2018-03-25T06:22:37.767Z,64.17
2018-03-25T06:25:41.099Z,66.03
2018-03-25T06:28:44.407Z,63.73
2018-03-25T06:31:47.723Z,61.87
2018-03-25T06:34:51.018Z,69.10
2018-03-25T06:37:54.334Z,65.50
2018-03-25T06:40:58.415Z,62.03
2018-03-25T06:44:01.792Z,67.70
2018-03-25T06:47:05.059Z,70.50
2018-03-25T06:50:09.155Z,68.20
2018-03-25T06:53:12.476Z,65.40
2018-03-25T06:56:15.774Z,61.67
2018-03-25T06:59:19.118Z,65.80
2018-03-25T07:02:22.426Z,68.67
2018-03-25T07:05:25.771Z,63.43
2018-03-25T07:08:29.095Z,65.57
2018-03-25T07:11:32.427Z,66.43
2018-03-25T07:14:35.742Z,59.67
2018-03-25T07:17:39.833Z,62.63
2018-03-25T07:20:43.165Z,69.60
2018-03-25T07:23:46.499Z,69.17
2018-03-25T07:26:49.831Z,63.73
2018-03-25T07:29:53.171Z,57.30
2018-03-25T07:32:56.480Z,61.63
2018-03-25T07:35:59.807Z,60.23
2018-03-25T07:39:03.124Z,56.57
2018-03-25T07:42:07.216Z,57.70
2018-03-25T07:45:10.534Z,57.60
2018-03-25T07:48:13.865Z,56.33
2018-03-25T07:51:17.184Z,61.67
2018-03-25T07:54:20.502Z,62.43
2018-03-25T07:57:23.832Z,64.00
2018-03-25T08:00:27.920Z,64.50
2018-03-25T08:03:31.223Z,61.63
2018-03-25T08:06:34.545Z,58.57
2018-03-25T08:09:38.623Z,63.07
2018-03-25T08:12:41.940Z,63.57
2018-03-25T08:15:45.242Z,63.87
2018-03-25T08:18:49.322Z,66.93
2018-03-25T08:21:52.622Z,64.60
2018-03-25T08:24:55.943Z,63.97
2018-03-25T08:27:59.359Z,61.47
2018-03-25T08:31:02.628Z,59.07
2018-03-25T08:34:05.947Z,56.33
2018-03-25T08:37:10.010Z,64.27
2018-03-25T08:40:13.354Z,58.40
2018-03-25T08:43:17.382Z,57.50
2018-03-25T08:46:20.682Z,72.23
2018-03-25T08:49:25.759Z,67.13
2018-03-25T08:52:29.112Z,63.83
2018-03-25T08:55:32.455Z,72.03
2018-03-25T08:58:35.763Z,64.80
2018-03-25T09:01:39.122Z,60.83
2018-03-25T09:04:42.426Z,59.73
2018-03-25T09:07:45.879Z,64.47
2018-03-25T09:10:49.942Z,58.83
2018-03-25T09:13:53.270Z,60.13
2018-03-25T09:16:56.573Z,68.20
2018-03-25T09:19:59.895Z,60.97
2018-03-25T09:23:04.987Z,63.07
2018-03-25T09:26:08.393Z,67.57
2018-03-25T09:29:11.707Z,70.27
2018-03-25T09:32:15.148Z,61.83
2018-03-25T09:35:18.671Z,61.23
2018-03-25T09:38:22.819Z,62.43
2018-03-25T09:41:26.915Z,63.50
2018-03-25T09:44:30.231Z,61.23
2018-03-25T09:47:33.531Z,60.13
2018-03-25T09:50:36.856Z,64.07
2018-03-25T09:53:40.171Z,64.73
2018-03-25T09:56:43.475Z,59.03
2018-03-25T09:59:46.799Z,62.60
2018-03-25T10:02:50.119Z,64.73
2018-03-25T10:05:53.419Z,62.10
2018-03-25T10:08:57.504Z,63.53
2018-03-25T10:12:00.827Z,63.50
2018-03-25T10:15:04.903Z,63.93
2018-03-25T10:18:08.230Z,68.27
2018-03-25T10:21:11.529Z,71.80
2018-03-25T10:24:14.865Z,73.10
2018-03-25T10:27:19.015Z,74.87
2018-03-25T10:30:22.349Z,67.83
2018-03-25T10:33:26.430Z,73.23
2018-03-25T10:36:29.727Z,70.60
2018-03-25T10:39:33.039Z,71.73
2018-03-25T10:42:36.406Z,68.47
2018-03-25T10:45:39.736Z,67.50
2018-03-25T10:48:43.045Z,73.03
2018-03-25T10:51:47.132Z,76.00
2018-03-25T10:54:50.432Z,72.80
2018-03-25T10:57:53.764Z,67.27
2018-03-25T11:00:57.867Z,71.80
2018-03-25T11:04:01.928Z,74.40
2018-03-25T11:07:05.280Z,73.43
2018-03-25T11:10:08.595Z,72.83
2018-03-25T11:13:11.954Z,73.87
2018-03-25T11:16:16.047Z,132.13
2018-03-25T11:19:19.379Z,74.53
2018-03-25T11:22:22.682Z,77.80
2018-03-25T11:25:26.770Z,89.03
2018-03-25T11:28:30.253Z,70.73
2018-03-25T11:31:33.612Z,74.43
2018-03-25T11:34:36.951Z,79.60
2018-03-25T11:37:40.261Z,83.93
2018-03-25T11:40:43.600Z,79.83
2018-03-25T11:43:46.937Z,81.83
2018-03-25T11:46:50.293Z,79.73
2018-03-25T11:49:53.628Z,85.57
2018-03-25T11:52:56.970Z,109.90
2018-03-25T11:56:01.089Z,134.07
2018-03-25T11:59:06.971Z,92.10
2018-03-25T12:02:10.295Z,80.83
2018-03-25T12:05:13.635Z,79.53
2018-03-25T12:08:17.748Z,76.47
2018-03-25T12:11:21.836Z,76.63
2018-03-25T12:14:25.196Z,80.00
2018-03-25T12:17:28.569Z,75.37
2018-03-25T12:20:31.988Z,75.03
2018-03-25T12:23:35.290Z,81.03
2018-03-25T12:26:38.594Z,77.10
2018-03-25T12:29:41.927Z,74.17
2018-03-25T12:32:45.236Z,73.83
2018-03-25T12:35:48.565Z,74.73
2018-03-25T12:38:51.875Z,75.83
2018-03-25T12:41:55.187Z,78.40
2018-03-25T12:44:58.491Z,79.03
2018-03-25T12:48:01.840Z,75.37
2018-03-25T12:51:05.123Z,78.00
2018-03-25T12:54:09.222Z,76.20
2018-03-25T12:57:12.538Z,81.57
2018-03-25T13:00:16.643Z,75.03
2018-03-25T13:03:19.959Z,78.57
2018-03-25T13:06:24.049Z,77.30
2018-03-25T13:09:27.387Z,81.07
2018-03-25T13:12:30.699Z,105.10
2018-03-25T13:15:34.030Z,84.33
2018-03-25T13:18:37.350Z,77.83
2018-03-25T13:21:40.731Z,79.17
2018-03-25T13:24:44.027Z,75.20
2018-03-25T13:27:47.339Z,85.07
2018-03-25T13:30:50.636Z,81.17
2018-03-25T13:33:54.719Z,88.93
2018-03-25T13:36:58.027Z,92.73
2018-03-25T13:40:01.369Z,83.03
2018-03-25T13:43:04.675Z,79.43
2018-03-25T13:46:07.995Z,78.87
2018-03-25T13:49:11.291Z,81.50
2018-03-25T13:52:14.623Z,80.40
2018-03-25T13:55:17.928Z,84.87
2018-03-25T13:58:22.023Z,86.73
2018-03-25T14:01:25.345Z,91.03
2018-03-25T14:04:29.420Z,84.90
2018-03-25T14:07:32.734Z,89.13
2018-03-25T14:10:36.035Z,92.63
2018-03-25T14:13:39.365Z,87.77
2018-03-25T14:16:42.667Z,88.63
2018-03-25T14:19:45.982Z,87.97
2018-03-25T14:22:49.279Z,89.60
2018-03-25T14:25:52.598Z,91.60
2018-03-25T14:28:55.918Z,93.03
2018-03-25T14:32:00.003Z,91.67
2018-03-25T14:35:03.325Z,86.40
2018-03-25T14:38:06.654Z,165.77
2018-03-25T14:41:09.971Z,92.70
2018-03-25T14:44:13.281Z,97.17
2018-03-25T14:47:16.606Z,93.40
2018-03-25T14:50:19.931Z,100.27
2018-03-25T14:53:23.267Z,95.03
2018-03-25T14:56:26.568Z,84.20
2018-03-25T14:59:29.891Z,64.77
2018-03-25T15:02:33.220Z,72.50
2018-03-25T15:05:36.548Z,61.60
2018-03-25T15:08:39.855Z,60.07
2018-03-25T15:11:43.171Z,55.70
2018-03-25T15:14:46.512Z,60.43
2018-03-25T15:17:49.821Z,60.67
2018-03-25T15:20:53.142Z,62.73
2018-03-25T15:23:56.447Z,62.50
2018-03-25T15:26:59.771Z,53.07
2018-03-25T15:30:03.858Z,55.53
2018-03-25T15:33:07.182Z,48.70
2018-03-25T15:36:10.487Z,42.10
2018-03-25T15:39:13.827Z,49.40
2018-03-25T15:42:17.131Z,45.73
2018-03-25T15:45:20.454Z,45.70
2018-03-25T15:48:24.055Z,47.67
2018-03-25T15:51:27.378Z,43.87
2018-03-25T15:54:31.624Z,50.03
2018-03-25T15:57:34.955Z,42.93
2018-03-25T16:00:38.256Z,46.47
2018-03-25T16:03:41.579Z,48.70
2018-03-25T16:06:45.680Z,40.93
2018-03-25T16:09:48.980Z,40.27
2018-03-25T16:12:52.307Z,45.47
2018-03-25T16:15:55.627Z,44.17
2018-03-25T16:18:58.952Z,48.77
2018-03-25T16:22:02.296Z,50.10
2018-03-25T16:25:05.603Z,50.23
2018-03-25T16:28:08.920Z,54.20
2018-03-25T16:31:12.239Z,60.97
2018-03-25T16:34:15.543Z,56.87
2018-03-25T16:37:18.874Z,58.27
2018-03-25T16:40:22.178Z,62.53
2018-03-25T16:43:25.503Z,63.90
2018-03-25T16:46:28.803Z,62.73
2018-03-25T16:49:32.128Z,66.63
2018-03-25T16:52:35.459Z,71.77
2018-03-25T16:55:39.529Z,73.90
2018-03-25T16:58:42.847Z,78.10
2018-03-25T17:01:46.147Z,82.47
2018-03-25T17:04:50.284Z,87.23
2018-03-25T17:07:53.557Z,97.97
2018-03-25T17:10:56.882Z,102.40
2018-03-25T17:14:00.195Z,87.77
2018-03-25T17:17:03.523Z,87.10
2018-03-25T17:20:06.827Z,92.20
2018-03-25T17:23:10.164Z,92.67
2018-03-25T17:26:13.514Z,103.50
2018-03-25T17:29:16.858Z,87.30
2018-03-25T17:32:20.167Z,102.40
2018-03-25T17:35:23.487Z,99.07
2018-03-25T17:38:26.791Z,97.17
2018-03-25T17:41:30.116Z,112.63
2018-03-25T17:44:34.195Z,121.63
2018-03-25T17:47:37.517Z,80.23
2018-03-25T17:50:40.833Z,79.87
2018-03-25T17:53:44.163Z,73.77
2018-03-25T17:56:47.479Z,99.33
2018-03-25T17:59:50.802Z,69.20
2018-03-25T18:02:54.143Z,76.93
2018-03-25T18:05:57.443Z,70.87
2018-03-25T18:09:00.771Z,107.20
2018-03-25T18:12:04.070Z,67.43
2018-03-25T18:15:07.399Z,94.10
2018-03-25T18:18:10.711Z,148.13
2018-03-25T18:21:14.903Z,108.47
2018-03-25T18:24:18.313Z,88.33
2018-03-25T18:27:21.571Z,137.70
2018-03-25T18:30:24.895Z,108.40
2018-03-25T18:33:28.207Z,101.47
2018-03-25T18:36:32.299Z,132.87
2018-03-25T18:39:35.611Z,150.23
2018-03-25T18:42:38.972Z,87.40
2018-03-25T18:45:42.262Z,166.70
2018-03-25T18:48:45.605Z,203.90
2018-03-25T18:51:48.914Z,111.23
2018-03-25T18:54:53.011Z,122.77
2018-03-25T18:57:57.087Z,107.23
2018-03-25T19:01:00.412Z,124.77
2018-03-25T19:04:03.719Z,173.50
2018-03-25T19:07:07.816Z,158.97
2018-03-25T19:10:11.123Z,117.80
2018-03-25T19:13:14.444Z,145.80
2018-03-25T19:16:18.544Z,111.50
2018-03-25T19:19:21.894Z,101.67
2018-03-25T19:22:25.239Z,146.27
2018-03-25T19:25:29.314Z,103.97
2018-03-25T19:28:32.639Z,103.57
2018-03-25T19:31:35.990Z,127.17
2018-03-25T19:34:39.295Z,98.27
2018-03-25T19:37:42.606Z,99.07
2018-03-25T19:40:45.930Z,104.30
2018-03-25T19:43:49.255Z,110.90
2018-03-25T19:46:52.591Z,114.60
2018-03-25T19:49:55.899Z,121.80
2018-03-25T19:52:59.236Z,121.70
2018-03-25T19:56:03.315Z,136.90
2018-03-25T19:59:06.659Z,142.47
2018-03-25T20:02:09.963Z,129.37
2018-03-25T20:05:14.896Z,118.17
2018-03-25T20:08:18.209Z,122.97
2018-03-25T20:11:21.535Z,121.73
2018-03-25T20:14:24.916Z,131.60
2018-03-25T20:17:28.178Z,137.90
2018-03-25T20:20:31.511Z,156.07
2018-03-25T20:23:34.859Z,142.83
2018-03-25T20:26:38.166Z,143.07
2018-03-25T20:29:41.496Z,146.80
2018-03-25T20:32:44.816Z,147.07
2018-03-25T20:35:48.117Z,147.57
2018-03-25T20:38:51.448Z,137.00
2018-03-25T20:41:54.763Z,110.33
2018-03-25T20:44:58.859Z,147.00
2018-03-25T20:48:02.173Z,158.93
2018-03-25T20:51:05.503Z,157.47
2018-03-25T20:54:08.810Z,112.87
2018-03-25T20:57:12.150Z,109.00
2018-03-25T21:00:15.456Z,89.70
2018-03-25T21:03:18.770Z,92.83
2018-03-25T21:06:22.074Z,90.87
2018-03-25T21:09:25.399Z,88.53
2018-03-25T21:12:28.736Z,79.67
2018-03-25T21:15:32.047Z,102.53
2018-03-25T21:18:35.450Z,89.90
2018-03-25T21:21:39.523Z,81.80
2018-03-25T21:24:42.827Z,80.73
2018-03-25T21:27:47.928Z,76.93
2018-03-25T21:30:51.445Z,91.60
2018-03-25T21:33:54.784Z,102.27
2018-03-25T21:36:58.104Z,100.50
2018-03-25T21:40:01.426Z,91.63
2018-03-25T21:43:04.751Z,115.33
2018-03-25T21:46:08.906Z,89.97
2018-03-25T21:49:12.214Z,66.50
2018-03-25T21:52:15.547Z,54.17
2018-03-25T21:55:18.855Z,50.50
2018-03-25T21:58:22.941Z,70.07
2018-03-25T22:01:26.247Z,75.60
2018-03-25T22:04:29.573Z,67.77
2018-03-25T22:07:32.882Z,57.20
2018-03-25T22:10:36.227Z,68.60
2018-03-25T22:13:39.540Z,92.23
2018-03-25T22:16:42.866Z,60.63
2018-03-25T22:19:46.469Z,63.73
2018-03-25T22:22:49.787Z,49.30
2018-03-25T22:25:53.674Z,68.07
2018-03-25T22:28:59.548Z,49.83
2018-03-25T22:32:13.574Z,44.00
2018-03-25T22:35:17.627Z,41.57
2018-03-25T22:38:20.999Z,46.23
2018-03-25T22:41:24.308Z,41.67
2018-03-25T22:44:27.943Z,35.40
2018-03-25T22:47:31.995Z,60.10
2018-03-25T22:50:39.496Z,73.83
2018-03-25T22:53:45.412Z,97.53
2018-03-25T22:56:48.749Z,102.37
2018-03-25T22:59:52.095Z,69.20
2018-03-25T23:02:55.422Z,63.93
2018-03-25T23:06:01.667Z,114.43
2018-03-25T23:09:05.872Z,82.30
2018-03-25T23:12:09.208Z,63.00
2018-03-25T23:15:17.756Z,46.43
2018-03-25T23:18:21.215Z,33.40
2018-03-25T23:21:24.527Z,26.77
2018-03-25T23:24:29.275Z,37.60
2018-03-25T23:27:32.640Z,28.90
2018-03-25T23:30:36.181Z,47.10
2018-03-25T23:33:40.029Z,82.13
2018-03-25T23:36:44.506Z,63.33
2018-03-25T23:39:47.960Z,51.80
2018-03-25T23:42:51.630Z,144.03
2018-03-25T23:45:56.545Z,109.73
2018-03-25T23:49:02.661Z,85.53
2018-03-25T23:52:08.822Z,53.50
2018-03-25T23:58:23.264Z,63.87
